Time,TemperatureF,DewpointF,PressureIn,WindDirection,WindDirectionDegrees,WindSpeedMPH,WindSpeedGustMPH,Humidity,HourlyPrecipIn,Conditions,Clouds,dailyrainin,SolarRadiationWatts/m^2,SoftwareType,DateUTC
2017-01-17 00:03:00,49.6,11.2,29.83,North,0,8.1,0.0,21,0.00,CLR,CLR,0.00,0.0,WeatherDisplay:10.37,2017-01-17 08:03:00,
2017-01-17 00:08:00,49.6,11.2,29.83,North,0,8.1,0.0,21,0.00,CLR,CLR,0.00,0.0,WeatherDisplay:10.37,2017-01-17 08:08:00,
2017-01-17 00:13:00,49.6,11.2,29.80,North,0,8.1,0.0,21,0.00,CLR,CLR,0.00,0.0,WeatherDisplay:10.37,2017-01-17 08:13:00,
2017-01-17 00:18:00,49.6,11.2,29.80,North,0,8.1,0.0,21,0.00,CLR,CLR,0.00,0.0,WeatherDisplay:10.37,2017-01-17 08:18:00,
2017-01-17 00:23:00,49.6,11.2,29.83,North,0,8.1,0.0,21,0.00,CLR,CLR,0.00,0.0,WeatherDisplay:10.37,2017-01-17 08:23:00,
2017-01-17 00:28:00,50.0,9.3,29.83,North,0,8.1,0.0,19,0.00,CLR,CLR,0.00,0.0,WeatherDisplay:10.37,2017-01-17 08:28:00,
2017-01-17 00:33:00,50.0,9.3,29.83,East,91,8.1,0.0,19,0.00,CLR,CLR,0.00,0.0,WeatherDisplay:10.37,2017-01-17 08:33:00,
2017-01-17 00:38:00,50.0,9.3,29.83,East,91,8.1,0.0,19,0.00,CLR,CLR,0.00,0.0,WeatherDisplay:10.37,2017-01-17 08:38:00,
2017-01-17 00:43:00,50.0,9.3,29.83,East,91,8.1,0.0,19,0.00,CLR,CLR,0.00,0.0,WeatherDisplay:10.37,2017-01-17 08:43:00,
2017-01-17 00:48:00,50.0,9.3,29.83,East,91,8.1,0.0,19,0.00,CLR,CLR,0.00,0.0,WeatherDisplay:10.37,2017-01-17 08:48:00,
2017-01-17 00:53:00,50.0,9.3,29.83,East,91,8.1,0.0,19,0.00,CLR,CLR,0.00,0.0,WeatherDisplay:10.37,2017-01-17 08:53:00,
2017-01-17 00:58:00,50.0,9.3,29.83,East,91,8.1,0.0,19,0.00,CLR,CLR,0.00,0.0,WeatherDisplay:10.37,2017-01-17 08:58:00,
2017-01-17 01:03:00,50.0,9.3,29.83,East,91,10.5,0.0,19,0.00,CLR,CLR,0.00,0.0,WeatherDisplay:10.37,2017-01-17 09:03:00,
2017-01-17 01:08:00,50.0,9.3,29.83,ENE,72,8.1,8.1,19,0.00,CLR,CLR,0.00,0.0,WeatherDisplay:10.37,2017-01-17 09:08:00,
2017-01-17 01:13:00,50.0,9.3,29.83,ENE,72,8.1,8.1,19,0.00,CLR,CLR,0.00,0.0,WeatherDisplay:10.37,2017-01-17 09:13:00,
2017-01-17 01:18:00,50.0,9.3,29.83,ENE,72,8.1,8.1,19,0.00,CLR,CLR,0.00,0.0,WeatherDisplay:10.37,2017-01-17 09:18:00,
2017-01-17 01:23:00,50.0,9.3,29.83,ENE,72,8.1,8.1,19,0.00,CLR,CLR,0.00,0.0,WeatherDisplay:10.37,2017-01-17 09:23:00,
2017-01-17 01:28:00,50.0,9.3,29.83,ENE,72,8.1,8.1,19,0.00,CLR,CLR,0.00,0.0,WeatherDisplay:10.37,2017-01-17 09:28:00,
2017-01-17 01:33:00,46.6,28.9,29.83,ENE,72,8.1,8.1,50,0.00,CLR,CLR,0.00,0.0,WeatherDisplay:10.37,2017-01-17 09:33:00,
2017-01-17 01:38:00,46.6,28.9,29.83,North,0,8.1,0.0,50,0.00,CLR,CLR,0.00,0.0,WeatherDisplay:10.37,2017-01-17 09:38:00,
2017-01-17 01:43:00,46.6,28.9,29.83,East,79,8.1,0.0,50,0.00,CLR,CLR,0.00,0.0,WeatherDisplay:10.37,2017-01-17 09:43:00,
2017-01-17 01:48:00,46.6,28.9,29.83,East,79,8.1,0.0,50,0.00,CLR,CLR,0.00,0.0,WeatherDisplay:10.37,2017-01-17 09:48:00,
2017-01-17 01:53:00,46.6,28.9,29.83,East,79,8.1,0.0,50,0.00,CLR,CLR,0.00,0.0,WeatherDisplay:10.37,2017-01-17 09:53:00,
2017-01-17 01:58:00,46.6,28.9,29.80,East,79,8.1,0.0,50,0.00,CLR,CLR,0.00,0.0,WeatherDisplay:10.37,2017-01-17 09:58:00,
2017-01-17 02:03:00,46.6,28.9,29.80,ENE,63,8.1,8.1,50,0.00,CLR,CLR,0.00,0.0,WeatherDisplay:10.37,2017-01-17 10:03:00,
2017-01-17 02:08:00,46.6,28.9,29.80,ENE,63,8.1,8.1,50,0.00,CLR,CLR,0.00,0.0,WeatherDisplay:10.37,2017-01-17 10:08:00,
2017-01-17 02:13:00,46.6,28.9,29.80,ENE,76,8.1,0.0,50,0.00,CLR,CLR,0.00,0.0,WeatherDisplay:10.37,2017-01-17 10:13:00,
2017-01-17 02:18:00,46.6,28.9,29.80,ENE,76,8.1,0.0,50,0.00,CLR,CLR,0.00,0.0,WeatherDisplay:10.37,2017-01-17 10:18:00,
2017-01-17 02:23:00,46.6,28.9,29.77,NE,55,8.1,0.0,50,0.00,CLR,CLR,0.00,0.0,WeatherDisplay:10.37,2017-01-17 10:23:00,
2017-01-17 02:28:00,46.6,28.9,29.77,ESE,118,8.1,8.1,50,0.00,CLR,CLR,0.00,0.0,WeatherDisplay:10.37,2017-01-17 10:28:00,
2017-01-17 02:33:00,46.6,28.9,29.77,ESE,118,8.1,8.1,50,0.00,CLR,CLR,0.00,0.0,WeatherDisplay:10.37,2017-01-17 10:33:00,
2017-01-17 02:38:00,46.6,28.9,29.77,ESE,118,8.1,8.1,50,0.00,CLR,CLR,0.00,0.0,WeatherDisplay:10.37,2017-01-17 10:38:00,
2017-01-17 02:48:00,46.6,28.9,29.77,ESE,118,8.1,8.1,50,0.00,CLR,CLR,0.00,0.0,WeatherDisplay:10.37,2017-01-17 10:48:00,
2017-01-17 02:53:00,46.6,28.9,29.77,ESE,116,8.1,8.1,50,0.00,CLR,CLR,0.00,0.0,WeatherDisplay:10.37,2017-01-17 10:53:00,
2017-01-17 02:58:00,46.6,28.9,29.77,ESE,116,8.1,8.1,50,0.00,CLR,CLR,0.04,0.0,WeatherDisplay:10.37,2017-01-17 10:58:00,
2017-01-17 03:03:00,46.6,28.9,29.77,ESE,116,8.1,8.1,50,0.00,CLR,CLR,0.04,0.0,WeatherDisplay:10.37,2017-01-17 11:03:00,
2017-01-17 03:08:00,46.6,28.9,29.74,ESE,116,8.1,8.1,50,0.00,CLR,CLR,0.04,0.0,WeatherDisplay:10.37,2017-01-17 11:08:00,
2017-01-17 03:13:00,46.6,28.9,29.74,North,0,8.1,8.1,50,0.00,CLR,CLR,0.04,0.0,WeatherDisplay:10.37,2017-01-17 11:13:00,
2017-01-17 03:18:00,45.9,28.7,29.74,North,0,8.1,8.1,51,0.00,CLR,CLR,0.04,0.0,WeatherDisplay:10.37,2017-01-17 11:18:00,
2017-01-17 03:23:00,45.9,28.7,29.74,North,0,8.1,8.1,51,0.00,CLR,CLR,0.04,0.0,WeatherDisplay:10.37,2017-01-17 11:23:00,
2017-01-17 03:28:00,45.9,28.7,29.74,North,0,8.1,8.1,51,0.00,CLR,CLR,0.04,0.0,WeatherDisplay:10.37,2017-01-17 11:28:00,
2017-01-17 03:33:00,45.9,28.7,29.74,North,0,8.1,8.1,51,0.00,CLR,CLR,0.04,0.0,WeatherDisplay:10.37,2017-01-17 11:33:00,
2017-01-17 03:38:00,45.9,28.7,29.74,ENE,75,8.1,0.0,51,0.00,CLR,CLR,0.04,0.0,WeatherDisplay:10.37,2017-01-17 11:38:00,
2017-01-17 03:43:00,45.9,28.7,29.74,ENE,75,8.1,0.0,51,0.00,CLR,CLR,0.04,0.0,WeatherDisplay:10.37,2017-01-17 11:43:00,
2017-01-17 03:48:00,45.7,32.6,29.74,SE,127,8.1,0.0,60,0.00,CLR,CLR,0.12,0.0,WeatherDisplay:10.37,2017-01-17 11:48:00,
2017-01-17 03:53:00,32.0,-40.6,29.74,SE,127,8.1,0.0,3,0.00,CLR,CLR,0.12,0.0,WeatherDisplay:10.37,2017-01-17 11:53:00,
2017-01-17 03:58:00,45.9,34.0,29.71,SE,132,8.1,0.0,63,0.00,CLR,CLR,0.12,0.0,WeatherDisplay:10.37,2017-01-17 11:58:00,
2017-01-17 04:03:00,45.9,34.0,29.71,SE,132,8.1,0.0,63,0.00,CLR,CLR,0.12,0.0,WeatherDisplay:10.37,2017-01-17 12:03:00,
2017-01-17 04:08:00,45.9,34.0,29.71,SE,132,8.1,0.0,63,0.00,CLR,CLR,0.12,0.0,WeatherDisplay:10.37,2017-01-17 12:08:00,
2017-01-17 04:13:00,45.9,34.0,29.71,SE,132,8.1,0.0,63,0.00,CLR,CLR,0.12,0.0,WeatherDisplay:10.37,2017-01-17 12:13:00,
2017-01-17 04:18:00,45.9,34.0,29.71,SE,132,8.1,0.0,63,0.00,CLR,CLR,0.12,0.0,WeatherDisplay:10.37,2017-01-17 12:18:00,
2017-01-17 04:23:00,45.9,34.0,29.71,SE,132,8.1,0.0,63,0.00,CLR,CLR,0.12,0.0,WeatherDisplay:10.37,2017-01-17 12:23:00,
2017-01-17 04:28:00,45.9,34.0,29.71,SE,132,8.1,0.0,63,0.00,CLR,CLR,0.12,0.0,WeatherDisplay:10.37,2017-01-17 12:28:00,
2017-01-17 04:33:00,45.9,34.0,29.71,SE,132,8.1,0.0,63,0.00,CLR,CLR,0.12,0.0,WeatherDisplay:10.37,2017-01-17 12:33:00,
2017-01-17 04:38:00,45.9,34.0,29.68,SE,132,8.1,0.0,63,0.00,CLR,CLR,0.12,0.0,WeatherDisplay:10.37,2017-01-17 12:38:00,
2017-01-17 04:43:00,45.9,34.0,29.68,SE,132,8.1,0.0,63,0.00,CLR,CLR,0.12,0.0,WeatherDisplay:10.37,2017-01-17 12:43:00,
2017-01-17 04:48:00,45.9,34.0,29.68,SE,132,8.1,0.0,63,0.00,CLR,CLR,0.12,0.0,WeatherDisplay:10.37,2017-01-17 12:48:00,
2017-01-17 04:53:00,45.9,34.0,29.68,SE,132,8.1,0.0,63,0.00,CLR,CLR,0.12,0.0,WeatherDisplay:10.37,2017-01-17 12:53:00,
2017-01-17 04:58:00,45.9,34.0,29.68,SE,132,8.1,0.0,63,0.00,CLR,CLR,0.12,0.0,WeatherDisplay:10.37,2017-01-17 12:58:00,
2017-01-17 05:03:00,45.9,34.0,29.68,SE,132,8.1,0.0,63,0.00,CLR,CLR,0.12,0.0,WeatherDisplay:10.37,2017-01-17 13:03:00,
2017-01-17 05:08:00,45.9,34.0,29.68,SE,132,8.1,0.0,63,0.00,CLR,CLR,0.12,0.0,WeatherDisplay:10.37,2017-01-17 13:08:00,
2017-01-17 05:13:00,46.8,37.5,29.68,SE,132,8.1,0.0,70,0.00,CLR,CLR,0.12,0.0,WeatherDisplay:10.37,2017-01-17 13:13:00,
2017-01-17 05:18:00,46.8,37.5,29.68,SE,132,8.1,0.0,70,0.00,CLR,CLR,0.12,0.0,WeatherDisplay:10.37,2017-01-17 13:18:00,
2017-01-17 05:23:00,46.8,37.5,29.65,SE,132,8.1,0.0,70,0.00,CLR,CLR,0.12,0.0,WeatherDisplay:10.37,2017-01-17 13:23:00,
2017-01-17 05:28:00,46.8,37.5,29.65,NE,39,8.1,0.0,70,0.00,CLR,CLR,0.12,0.0,WeatherDisplay:10.37,2017-01-17 13:28:00,
2017-01-17 05:33:00,46.8,37.5,29.65,North,0,8.1,0.0,70,0.00,CLR,CLR,0.12,0.0,WeatherDisplay:10.37,2017-01-17 13:33:00,
2017-01-17 05:38:00,47.1,38.6,29.65,North,0,8.1,0.0,72,0.00,CLR,CLR,0.12,0.0,WeatherDisplay:10.37,2017-01-17 13:38:00,
2017-01-17 05:43:00,47.1,38.6,29.65,North,0,8.1,0.0,72,0.00,CLR,CLR,0.12,0.0,WeatherDisplay:10.37,2017-01-17 13:43:00,
2017-01-17 05:49:00,47.1,38.6,29.65,North,0,8.1,0.0,72,0.00,CLR,CLR,0.35,0.0,WeatherDisplay:10.37,2017-01-17 13:49:00,
2017-01-17 05:54:00,47.1,38.6,29.65,North,0,8.1,0.0,72,0.00,CLR,CLR,0.35,0.0,WeatherDisplay:10.37,2017-01-17 13:54:00,
2017-01-17 05:59:00,47.1,38.6,29.65,North,0,8.1,0.0,72,0.00,CLR,CLR,0.35,0.0,WeatherDisplay:10.37,2017-01-17 13:59:00,
2017-01-17 06:04:00,47.1,38.6,29.65,North,0,8.1,0.0,72,0.00,CLR,CLR,0.35,0.0,WeatherDisplay:10.37,2017-01-17 14:04:00,
2017-01-17 06:09:00,47.1,38.6,29.62,North,0,8.1,0.0,72,0.00,CLR,CLR,0.35,0.0,WeatherDisplay:10.37,2017-01-17 14:09:00,
2017-01-17 06:14:00,47.1,38.6,29.62,North,0,8.1,0.0,72,0.00,CLR,CLR,0.35,0.0,WeatherDisplay:10.37,2017-01-17 14:14:00,
2017-01-17 06:19:00,47.1,38.6,29.62,East,83,8.1,0.0,72,0.00,CLR,CLR,0.35,0.0,WeatherDisplay:10.37,2017-01-17 14:19:00,
2017-01-17 06:24:00,47.1,38.6,29.62,East,83,8.1,0.0,72,0.00,CLR,CLR,0.35,0.0,WeatherDisplay:10.37,2017-01-17 14:24:00,
2017-01-17 06:29:00,47.1,38.6,29.62,East,83,8.1,0.0,72,0.00,CLR,CLR,0.35,0.0,WeatherDisplay:10.37,2017-01-17 14:29:00,
2017-01-17 06:34:00,47.1,38.6,29.62,East,83,8.1,0.0,72,0.00,CLR,CLR,0.35,0.0,WeatherDisplay:10.37,2017-01-17 14:34:00,
2017-01-17 06:39:00,47.1,38.6,29.62,East,83,8.1,0.0,72,0.00,CLR,CLR,0.35,0.0,WeatherDisplay:10.37,2017-01-17 14:39:00,
2017-01-17 06:44:00,47.1,38.6,29.62,East,83,8.1,0.0,72,0.00,CLR,CLR,0.35,0.0,WeatherDisplay:10.37,2017-01-17 14:44:00,
2017-01-17 06:49:00,47.1,38.6,29.62,East,83,8.1,0.0,72,0.00,CLR,CLR,0.35,0.0,WeatherDisplay:10.37,2017-01-17 14:49:00,
2017-01-17 06:54:00,47.1,38.6,29.62,East,83,8.1,0.0,72,0.00,CLR,CLR,0.35,0.0,WeatherDisplay:10.37,2017-01-17 14:54:00,
2017-01-17 06:59:00,47.1,38.6,29.62,East,83,8.1,0.0,72,0.00,CLR,CLR,0.35,0.0,WeatherDisplay:10.37,2017-01-17 14:59:00,
2017-01-17 07:04:00,47.1,38.6,29.62,East,83,8.1,0.0,72,0.00,CLR,CLR,0.35,0.0,WeatherDisplay:10.37,2017-01-17 15:04:00,
2017-01-17 07:09:00,47.1,38.6,29.59,North,0,8.1,0.0,72,0.00,CLR,CLR,0.35,0.0,WeatherDisplay:10.37,2017-01-17 15:09:00,
2017-01-17 07:14:00,47.1,38.6,29.59,North,0,8.1,0.0,72,0.00,CLR,CLR,0.35,0.0,WeatherDisplay:10.37,2017-01-17 15:14:00,
2017-01-17 07:19:00,47.1,38.6,29.59,North,0,8.1,0.0,72,0.00,CLR,CLR,0.35,0.0,WeatherDisplay:10.37,2017-01-17 15:19:00,
2017-01-17 07:24:00,47.1,38.6,29.59,North,0,8.1,0.0,72,0.00,CLR,CLR,0.35,0.0,WeatherDisplay:10.37,2017-01-17 15:24:00,
2017-01-17 07:29:00,47.1,38.6,29.59,NE,48,8.1,8.1,72,0.00,CLR,CLR,0.35,0.0,WeatherDisplay:10.37,2017-01-17 15:29:00,
2017-01-17 07:34:00,47.1,38.6,29.59,NE,48,8.1,8.1,72,0.00,CLR,CLR,0.35,0.0,WeatherDisplay:10.37,2017-01-17 15:34:00,
2017-01-17 07:39:00,47.1,38.6,29.59,NE,48,8.1,8.1,72,0.00,CLR,CLR,0.35,0.0,WeatherDisplay:10.37,2017-01-17 15:39:00,
2017-01-17 07:44:00,48.0,39.8,29.59,ENE,64,8.1,0.0,73,0.00,CLR,CLR,0.35,0.0,WeatherDisplay:10.37,2017-01-17 15:44:00,
2017-01-17 07:49:00,48.0,39.8,29.59,SW,236,8.1,0.0,73,0.00,CLR,CLR,0.35,0.0,WeatherDisplay:10.37,2017-01-17 15:49:00,
2017-01-17 07:54:00,32.0,-40.6,29.59,ENE,59,8.1,0.0,3,0.00,CLR,CLR,0.35,0.0,WeatherDisplay:10.37,2017-01-17 15:54:00,
2017-01-17 07:59:00,32.0,-40.6,29.59,ENE,59,8.1,0.0,3,0.00,CLR,CLR,0.35,0.0,WeatherDisplay:10.37,2017-01-17 15:59:00,
2017-01-17 08:04:00,48.0,39.8,29.59,ENE,59,8.1,0.0,73,0.00,CLR,CLR,0.35,0.0,WeatherDisplay:10.37,2017-01-17 16:04:00,
2017-01-17 08:09:00,48.0,39.8,29.59,ENE,59,8.1,0.0,73,0.00,CLR,CLR,0.43,0.0,WeatherDisplay:10.37,2017-01-17 16:09:00,
2017-01-17 08:14:00,48.0,39.8,29.59,ENE,59,8.1,0.0,73,0.00,CLR,CLR,0.43,0.0,WeatherDisplay:10.37,2017-01-17 16:14:00,
2017-01-17 08:19:00,48.0,39.8,29.59,ENE,59,8.1,0.0,73,0.00,CLR,CLR,0.43,0.0,WeatherDisplay:10.37,2017-01-17 16:19:00,
2017-01-17 08:24:00,48.0,39.8,29.59,East,90,8.1,0.0,73,0.00,CLR,CLR,0.43,0.0,WeatherDisplay:10.37,2017-01-17 16:24:00,
2017-01-17 08:29:00,48.0,39.8,29.59,East,90,8.1,0.0,73,0.00,CLR,CLR,0.43,0.0,WeatherDisplay:10.37,2017-01-17 16:29:00,
2017-01-17 08:34:00,48.0,39.8,29.59,East,90,8.1,0.0,73,0.00,CLR,CLR,0.43,0.0,WeatherDisplay:10.37,2017-01-17 16:34:00,
2017-01-17 08:39:00,48.0,39.8,29.59,East,90,8.1,0.0,73,0.00,CLR,CLR,0.43,0.0,WeatherDisplay:10.37,2017-01-17 16:39:00,
2017-01-17 08:44:00,48.0,39.8,29.59,North,0,8.1,0.0,73,0.00,CLR,CLR,0.43,0.0,WeatherDisplay:10.37,2017-01-17 16:44:00,
2017-01-17 08:49:00,48.0,39.8,29.59,North,0,8.1,0.0,73,0.00,CLR,CLR,0.43,0.0,WeatherDisplay:10.37,2017-01-17 16:49:00,
2017-01-17 08:54:00,48.0,39.8,29.59,North,0,8.1,0.0,73,0.00,CLR,CLR,0.43,0.0,WeatherDisplay:10.37,2017-01-17 16:54:00,
2017-01-17 08:59:00,48.0,39.8,29.59,ESE,118,8.1,8.1,73,0.00,CLR,CLR,0.43,0.0,WeatherDisplay:10.37,2017-01-17 16:59:00,